CheckWX is a tool to help pilots better visualize weather data.  It is not intended as a substitute for an official pre-flight weather briefing.

01:26:31 UTC

KNHK METAR
Airport
Patuxent River, Maryland, USA
Current

35 mins ago

KNHK 120052Z AUTO 21011KT 10SM CLR 16/07 A2991 RMK AO2 SLP128 T01610072
Observed
Nov-12 @ 00:52 UTC
Wind
  • 210° at 11 KTS
Visibility
10 SM
Flight Rules
VFR
Cloud Levels
  • Clear skies
Temperature
16°C / 61°F
Dewpoint
C / 45°F
Humidity
55%
Altimeter
29.91" Hg
Pressure
1012.92 hPa
Previous

2 hours ago

KNHK 112352Z AUTO 19010KT 10SM CLR 16/07 A2990 RMK AO2 SLP126 T01610067 10178 20139 58019
Observed
Nov-11 @ 23:52 UTC
Wind
  • 190° at 10 KTS
Visibility
10 SM
Flight Rules
VFR
Cloud Levels
  • Clear skies
Temperature
16°C / 61°F
Dewpoint
C / 45°F
Humidity
55%
Altimeter
29.9" Hg
Pressure
1012.52 hPa
Previous

3 hours ago

KNHK 112252Z AUTO 17007KT 10SM CLR 16/09 A2992 RMK AO2 SLP131 T01560089
Observed
Nov-11 @ 22:52 UTC
Wind
  • 170° at 7 KTS
Visibility
10 SM
Flight Rules
VFR
Cloud Levels
  • Clear skies
Temperature
16°C / 61°F
Dewpoint
C / 48°F
Humidity
63%
Altimeter
29.92" Hg
Pressure
1013.22 hPa